Stolt Shearwater — ZCRD9 — position and weather

sailwx.info

Track history (hours):
 
Tides and Currents Weather Stations Pressure Air Temp Water Temp Dewpoint Dewpoint Depression Visibility Wind Speed Wind Dir Waves Ship Positions

Stolt Shearwater

Last reported at 2015-Mar-30 10:30 UTC. Time now 2015-Mar-30 10:43 UTC.
Position N 36°52' W 000°50'.

Length 96 m; draft 5.7 m.

Type: Ship (hazmat cat B). MMSI: 319402000.

Date/timePositionNaut miles runAvg speedWind from/ knotsBaromVisibWave heightAir tempDewpointWater temp
2015-Mar-30 10:30N 36°52' W 000°50'1111.5
2015-Mar-30 09:33N 36°56' W 000°38'2211.1
2015-Mar-30 07:33N 37°06' W 000°13'1110.7
2015-Mar-30 06:32N 37°10' W 000°00'1110.8
2015-Mar-30 05:33N 37°14' E 000°12'1010.5
2015-Mar-30 04:33N 37°18' E 000°24'1110.5
2015-Mar-30 03:33N 37°28' E 000°30'1111.4
2015-Mar-30 02:33N 37°38' E 000°36'1511.2
2015-Mar-30 01:11N 37°52' E 000°44'711.1
2015-Mar-30 00:33N 37°59' E 000°46'1111.3
2015-Mar-29 23:33N 38°10' E 000°47'1111.1
2015-Mar-29 22:33N 38°21' E 000°48'1211.4
2015-Mar-29 21:31N 38°33' E 000°49'2711.4
2015-Mar-29 19:10N 38°60' E 000°52'711.5
2015-Mar-29 18:32N 39°07' E 000°53'4310.8
2015-Mar-29 14:33N 39°43' E 001°25'1211.4
2015-Mar-29 13:33N 39°52' E 001°34'1211.6
2015-Mar-29 12:33N 40°01' E 001°43'1111.3
2015-Mar-29 11:33N 40°10' E 001°52'1111.3
2015-Mar-29 10:33N 40°19' E 002°01'1111.4
2015-Mar-29 09:33N 40°28' E 002°10'1111.2
2015-Mar-29 08:33N 40°37' E 002°19'1111.2
2015-Mar-29 07:33N 40°45' E 002°29'1211.5
2015-Mar-29 06:33N 40°54' E 002°38'1211.8
2015-Mar-29 05:31N 41°04' E 002°47'8211.7
2015-Mar-28 22:30N 42°09' E 003°56'1411.0
2015-Mar-28 21:15N 42°20' E 004°07'1010.9
2015-Mar-28 20:20N 42°28' E 004°15'910.8
2015-Mar-28 19:29N 42°35' E 004°23'1010.1
2015-Mar-28 18:28N 42°42' E 004°32'1010.0
2015-Mar-28 17:28N 42°50' E 004°40'10 9.8
2015-Mar-28 16:27N 42°58' E 004°49'1110.8
2015-Mar-28 15:25N 43°07' E 004°58'910.3
2015-Mar-28 14:33N 43°16' E 004°60'8 7.0
2015-Mar-28 13:27N 43°24' E 004°60'0 0.0
2015-Mar-28 12:30N 43°24' E 004°60'0 0.0
2015-Mar-28 11:33N 43°24' E 004°60'0 0.0
2015-Mar-28 10:24N 43°24' E 004°60'0 0.0
2015-Mar-28 09:24N 43°24' E 004°60'0 0.0
2015-Mar-28 08:24N 43°24' E 004°60'0 0.0
2015-Mar-28 07:33N 43°24' E 004°60'0 0.0
2015-Mar-28 06:30N 43°24' E 004°60'0 0.0
2015-Mar-28 05:33N 43°24' E 004°60'0 0.0
2015-Mar-28 04:33N 43°24' E 004°60'0 0.0
2015-Mar-28 03:30N 43°24' E 004°60'0 0.0
2015-Mar-28 02:27N 43°24' E 004°60'0 0.0
2015-Mar-28 01:33N 43°24' E 004°60'0 0.0
2015-Mar-28 00:30N 43°24' E 004°60'0 0.0
2015-Mar-27 23:30N 43°24' E 004°60'0 0.0
2015-Mar-27 22:30N 43°24' E 004°60'0 0.0
2015-Mar-27 21:30N 43°24' E 004°60'0 0.0
2015-Mar-27 20:27N 43°24' E 004°60'0 0.0
2015-Mar-27 19:33N 43°24' E 004°60'2 1.5
2015-Mar-27 18:33N 43°24' E 005°02'4 0.3
2015-Mar-27 06:11N 43°26' E 005°07'5 7.4
2015-Mar-27 05:33N 43°24' E 005°01'6 5.5
2015-Mar-27 04:33N 43°19' E 004°59'7 7.2
2015-Mar-27 03:34N 43°12' E 005°03'6 5.5
2015-Mar-27 02:32N 43°07' E 005°01'7 6.9
2015-Mar-27 01:33N 43°01' E 004°57'7 6.7
2015-Mar-27 00:33N 42°55' E 004°53'7 6.6
2015-Mar-26 23:33N 42°49' E 004°49'8 7.7
2015-Mar-26 22:33N 42°42' E 004°45'7 7.3
2015-Mar-26 21:33N 42°35' E 004°40'8 7.8
2015-Mar-26 20:34N 42°28' E 004°36'8 8.0
2015-Mar-26 19:34N 42°21' E 004°30'9 8.8
2015-Mar-26 18:33N 42°14' E 004°23'8 8.5
2015-Mar-26 17:33N 42°07' E 004°17'12 8.4
2015-Mar-26 16:07N 41°58' E 004°06'4 7.5
2015-Mar-26 15:33N 41°55' E 004°02'9 9.0
2015-Mar-26 14:34N 41°51' E 003°51'9 9.2
2015-Mar-26 13:33N 41°47' E 003°40'10 8.8
2015-Mar-26 12:28N 41°43' E 003°29'8 8.5
2015-Mar-26 11:33N 41°39' E 003°20'9 9.1
2015-Mar-26 10:32N 41°34' E 003°09'10 9.6
2015-Mar-26 09:29N 41°28' E 002°58'18 9.3
2015-Mar-26 07:30N 41°18' E 002°37'10 9.9
2015-Mar-26 06:29N 41°13' E 002°26'11 0.5
2015-Mar-25 07:29N 41°14' E 002°11'9 8.4
2015-Mar-25 06:24N 41°06' E 002°08'7 8.4
2015-Mar-25 05:33N 41°03' E 001°60'12 8.8
2015-Mar-25 04:11N 40°60' E 001°44'6 8.9
2015-Mar-25 03:29N 40°57' E 001°37'38 2.3
2015-Mar-24 11:24N 40°28' E 001°06'9 9.9
2015-Mar-24 10:29N 40°20' E 001°02'1010.2
2015-Mar-24 09:33N 40°10' E 000°59'1010.2
2015-Mar-24 08:33N 40°00' E 000°55'1010.2
2015-Mar-24 07:32N 39°50' E 000°52'12410.2
2015-Mar-23 19:22N 37°57' W 000°11'911.0
2015-Mar-23 18:32N 37°49' W 000°17'1110.7
2015-Mar-23 17:33N 37°40' W 000°25'1210.4
2015-Mar-23 16:22N 37°31' W 000°35'24110.6
2015-Mar-22 17:33N 35°60' W 005°13'1414.2
2015-Mar-22 16:33N 35°57' W 005°30'278 9.2
2015-Mar-21 10:19N 38°41' W 010°12'  
Track history (hours):
 
Tides and Currents Weather Stations Pressure Air Temp Water Temp Dewpoint Dewpoint Depression Visibility Wind Speed Wind Dir Waves Ship Positions

Stolt Shearwater

Last reported at 2015-Mar-30 10:30 UTC. Time now 2015-Mar-30 10:43 UTC.
Position N 36°52' W 000°50'.

Length 96 m; draft 5.7 m.

Type: Ship (hazmat cat B). MMSI: 319402000.

Date/timePositionNaut miles runAvg speedWind from/ knotsBaromVisibWave heightAir tempDewpointWater temp
2015-Mar-30 10:30N 36°52' W 000°50'1111.5
2015-Mar-30 09:33N 36°56' W 000°38'2211.1
2015-Mar-30 07:33N 37°06' W 000°13'1110.7
2015-Mar-30 06:32N 37°10' W 000°00'1110.8
2015-Mar-30 05:33N 37°14' E 000°12'1010.5
2015-Mar-30 04:33N 37°18' E 000°24'1110.5
2015-Mar-30 03:33N 37°28' E 000°30'1111.4
2015-Mar-30 02:33N 37°38' E 000°36'1511.2
2015-Mar-30 01:11N 37°52' E 000°44'711.1
2015-Mar-30 00:33N 37°59' E 000°46'1111.3
2015-Mar-29 23:33N 38°10' E 000°47'1111.1
2015-Mar-29 22:33N 38°21' E 000°48'1211.4
2015-Mar-29 21:31N 38°33' E 000°49'2711.4
2015-Mar-29 19:10N 38°60' E 000°52'711.5
2015-Mar-29 18:32N 39°07' E 000°53'4310.8
2015-Mar-29 14:33N 39°43' E 001°25'1211.4
2015-Mar-29 13:33N 39°52' E 001°34'1211.6
2015-Mar-29 12:33N 40°01' E 001°43'1111.3
2015-Mar-29 11:33N 40°10' E 001°52'1111.3
2015-Mar-29 10:33N 40°19' E 002°01'1111.4
2015-Mar-29 09:33N 40°28' E 002°10'1111.2
2015-Mar-29 08:33N 40°37' E 002°19'1111.2
2015-Mar-29 07:33N 40°45' E 002°29'1211.5
2015-Mar-29 06:33N 40°54' E 002°38'1211.8
2015-Mar-29 05:31N 41°04' E 002°47'8211.7
2015-Mar-28 22:30N 42°09' E 003°56'1411.0
2015-Mar-28 21:15N 42°20' E 004°07'1010.9
2015-Mar-28 20:20N 42°28' E 004°15'910.8
2015-Mar-28 19:29N 42°35' E 004°23'1010.1
2015-Mar-28 18:28N 42°42' E 004°32'1010.0
2015-Mar-28 17:28N 42°50' E 004°40'10 9.8
2015-Mar-28 16:27N 42°58' E 004°49'1110.8
2015-Mar-28 15:25N 43°07' E 004°58'910.3
2015-Mar-28 14:33N 43°16' E 004°60'8 7.0
2015-Mar-28 13:27N 43°24' E 004°60'0 0.0
2015-Mar-28 12:30N 43°24' E 004°60'0 0.0
2015-Mar-28 11:33N 43°24' E 004°60'0 0.0
2015-Mar-28 10:24N 43°24' E 004°60'0 0.0
2015-Mar-28 09:24N 43°24' E 004°60'0 0.0
2015-Mar-28 08:24N 43°24' E 004°60'0 0.0
2015-Mar-28 07:33N 43°24' E 004°60'0 0.0
2015-Mar-28 06:30N 43°24' E 004°60'0 0.0
2015-Mar-28 05:33N 43°24' E 004°60'0 0.0
2015-Mar-28 04:33N 43°24' E 004°60'0 0.0
2015-Mar-28 03:30N 43°24' E 004°60'0 0.0
2015-Mar-28 02:27N 43°24' E 004°60'0 0.0
2015-Mar-28 01:33N 43°24' E 004°60'0 0.0
2015-Mar-28 00:30N 43°24' E 004°60'0 0.0
2015-Mar-27 23:30N 43°24' E 004°60'0 0.0
2015-Mar-27 22:30N 43°24' E 004°60'0 0.0
2015-Mar-27 21:30N 43°24' E 004°60'0 0.0
2015-Mar-27 20:27N 43°24' E 004°60'0 0.0
2015-Mar-27 19:33N 43°24' E 004°60'2 1.5
2015-Mar-27 18:33N 43°24' E 005°02'4 0.3
2015-Mar-27 06:11N 43°26' E 005°07'5 7.4
2015-Mar-27 05:33N 43°24' E 005°01'6 5.5
2015-Mar-27 04:33N 43°19' E 004°59'7 7.2
2015-Mar-27 03:34N 43°12' E 005°03'6 5.5
2015-Mar-27 02:32N 43°07' E 005°01'7 6.9
2015-Mar-27 01:33N 43°01' E 004°57'7 6.7
2015-Mar-27 00:33N 42°55' E 004°53'7 6.6
2015-Mar-26 23:33N 42°49' E 004°49'8 7.7
2015-Mar-26 22:33N 42°42' E 004°45'7 7.3
2015-Mar-26 21:33N 42°35' E 004°40'8 7.8
2015-Mar-26 20:34N 42°28' E 004°36'8 8.0
2015-Mar-26 19:34N 42°21' E 004°30'9 8.8
2015-Mar-26 18:33N 42°14' E 004°23'8 8.5
2015-Mar-26 17:33N 42°07' E 004°17'12 8.4
2015-Mar-26 16:07N 41°58' E 004°06'4 7.5
2015-Mar-26 15:33N 41°55' E 004°02'9 9.0
2015-Mar-26 14:34N 41°51' E 003°51'9 9.2
2015-Mar-26 13:33N 41°47' E 003°40'10 8.8
2015-Mar-26 12:28N 41°43' E 003°29'8 8.5
2015-Mar-26 11:33N 41°39' E 003°20'9 9.1
2015-Mar-26 10:32N 41°34' E 003°09'10 9.6
2015-Mar-26 09:29N 41°28' E 002°58'18 9.3
2015-Mar-26 07:30N 41°18' E 002°37'10 9.9
2015-Mar-26 06:29N 41°13' E 002°26'11 0.5
2015-Mar-25 07:29N 41°14' E 002°11'9 8.4
2015-Mar-25 06:24N 41°06' E 002°08'7 8.4
2015-Mar-25 05:33N 41°03' E 001°60'12 8.8
2015-Mar-25 04:11N 40°60' E 001°44'6 8.9
2015-Mar-25 03:29N 40°57' E 001°37'38 2.3
2015-Mar-24 11:24N 40°28' E 001°06'9 9.9
2015-Mar-24 10:29N 40°20' E 001°02'1010.2
2015-Mar-24 09:33N 40°10' E 000°59'1010.2
2015-Mar-24 08:33N 40°00' E 000°55'1010.2
2015-Mar-24 07:32N 39°50' E 000°52'12410.2
2015-Mar-23 19:22N 37°57' W 000°11'911.0
2015-Mar-23 18:32N 37°49' W 000°17'1110.7
2015-Mar-23 17:33N 37°40' W 000°25'1210.4
2015-Mar-23 16:22N 37°31' W 000°35'24110.6
2015-Mar-22 17:33N 35°60' W 005°13'1414.2
2015-Mar-22 16:33N 35°57' W 005°30'278 9.2
2015-Mar-21 10:19N 38°41' W 010°12'  

Dump ship's entire track history